sensor_id;sensor_type;location;lat;lon;timestamp;P1;durP1;ratioP1;P2;durP2;ratioP2
14100;SDS011;7127;49.372;8.166;2022-07-29T00:01:46;1.80;;;1.00;;
14100;SDS011;7127;49.372;8.166;2022-07-29T00:04:13;1.97;;;0.90;;
14100;SDS011;7127;49.372;8.166;2022-07-29T00:06:40;1.33;;;0.90;;
14100;SDS011;7127;49.372;8.166;2022-07-29T00:09:07;0.90;;;0.90;;
14100;SDS011;7127;49.372;8.166;2022-07-29T00:11:35;1.53;;;0.83;;
14100;SDS011;7127;49.372;8.166;2022-07-29T00:14:02;1.10;;;0.87;;
14100;SDS011;7127;49.372;8.166;2022-07-29T00:16:29;1.00;;;0.90;;
14100;SDS011;7127;49.372;8.166;2022-07-29T00:18:57;1.00;;;0.87;;
14100;SDS011;7127;49.372;8.166;2022-07-29T00:21:24;0.80;;;0.80;;
14100;SDS011;7127;49.372;8.166;2022-07-29T00:23:51;1.77;;;1.10;;
14100;SDS011;7127;49.372;8.166;2022-07-29T00:26:18;0.97;;;0.97;;
14100;SDS011;7127;49.372;8.166;2022-07-29T00:28:46;2.30;;;1.00;;
14100;SDS011;7127;49.372;8.166;2022-07-29T00:31:13;1.90;;;1.00;;
14100;SDS011;7127;49.372;8.166;2022-07-29T00:33:40;1.33;;;0.97;;
14100;SDS011;7127;49.372;8.166;2022-07-29T00:36:07;1.40;;;1.07;;
14100;SDS011;7127;49.372;8.166;2022-07-29T00:38:33;1.43;;;1.00;;
14100;SDS011;7127;49.372;8.166;2022-07-29T00:41:00;0.97;;;0.87;;
14100;SDS011;7127;49.372;8.166;2022-07-29T00:43:27;1.37;;;0.90;;
14100;SDS011;7127;49.372;8.166;2022-07-29T00:45:55;1.00;;;0.90;;
14100;SDS011;7127;49.372;8.166;2022-07-29T00:48:22;1.80;;;1.00;;
14100;SDS011;7127;49.372;8.166;2022-07-29T00:50:49;1.33;;;1.00;;
14100;SDS011;7127;49.372;8.166;2022-07-29T00:53:17;1.23;;;1.00;;
14100;SDS011;7127;49.372;8.166;2022-07-29T00:55:45;2.80;;;1.00;;
14100;SDS011;7127;49.372;8.166;2022-07-29T00:58:12;1.10;;;0.90;;
14100;SDS011;7127;49.372;8.166;2022-07-29T01:00:39;0.87;;;0.80;;
14100;SDS011;7127;49.372;8.166;2022-07-29T01:03:08;1.50;;;1.20;;
14100;SDS011;7127;49.372;8.166;2022-07-29T01:05:35;0.97;;;0.83;;
14100;SDS011;7127;49.372;8.166;2022-07-29T01:08:02;1.37;;;1.23;;
14100;SDS011;7127;49.372;8.166;2022-07-29T01:10:31;1.13;;;1.03;;
14100;SDS011;7127;49.372;8.166;2022-07-29T01:12:58;2.37;;;1.03;;
14100;SDS011;7127;49.372;8.166;2022-07-29T01:15:27;1.47;;;1.13;;
14100;SDS011;7127;49.372;8.166;2022-07-29T01:17:57;1.43;;;1.20;;
14100;SDS011;7127;49.372;8.166;2022-07-29T01:20:40;0.87;;;0.70;;
14100;SDS011;7127;49.372;8.166;2022-07-29T01:23:37;2.03;;;0.90;;
14100;SDS011;7127;49.372;8.166;2022-07-29T01:26:23;0.87;;;0.87;;
14100;SDS011;7127;49.372;8.166;2022-07-29T01:29:04;1.60;;;0.90;;
14100;SDS011;7127;49.372;8.166;2022-07-29T01:31:36;1.50;;;1.10;;
14100;SDS011;7127;49.372;8.166;2022-07-29T01:34:10;2.83;;;1.10;;
14100;SDS011;7127;49.372;8.166;2022-07-29T01:36:48;1.60;;;0.93;;
14100;SDS011;7127;49.372;8.166;2022-07-29T01:39:18;1.40;;;1.10;;
14100;SDS011;7127;49.372;8.166;2022-07-29T01:41:50;1.03;;;0.90;;
14100;SDS011;7127;49.372;8.166;2022-07-29T01:44:27;1.07;;;0.90;;
14100;SDS011;7127;49.372;8.166;2022-07-29T01:46:58;2.10;;;1.20;;
14100;SDS011;7127;49.372;8.166;2022-07-29T01:49:36;2.20;;;1.00;;
14100;SDS011;7127;49.372;8.166;2022-07-29T01:52:10;1.60;;;1.00;;
14100;SDS011;7127;49.372;8.166;2022-07-29T01:54:42;1.10;;;1.00;;
14100;SDS011;7127;49.372;8.166;2022-07-29T01:57:13;3.13;;;1.00;;
14100;SDS011;7127;49.372;8.166;2022-07-29T01:59:43;1.23;;;0.93;;
14100;SDS011;7127;49.372;8.166;2022-07-29T02:02:13;1.37;;;0.97;;
14100;SDS011;7127;49.372;8.166;2022-07-29T02:04:41;0.97;;;0.87;;
14100;SDS011;7127;49.372;8.166;2022-07-29T02:07:13;2.10;;;1.00;;
14100;SDS011;7127;49.372;8.166;2022-07-29T02:09:44;2.23;;;0.90;;
14100;SDS011;7127;49.372;8.166;2022-07-29T02:12:12;1.63;;;1.00;;
14100;SDS011;7127;49.372;8.166;2022-07-29T02:14:42;1.10;;;0.90;;
14100;SDS011;7127;49.372;8.166;2022-07-29T02:17:13;1.00;;;1.00;;
14100;SDS011;7127;49.372;8.166;2022-07-29T02:19:46;1.67;;;1.20;;
14100;SDS011;7127;49.372;8.166;2022-07-29T02:22:14;3.10;;;1.10;;
14100;SDS011;7127;49.372;8.166;2022-07-29T02:24:44;2.00;;;1.00;;
14100;SDS011;7127;49.372;8.166;2022-07-29T02:27:12;1.27;;;0.93;;
14100;SDS011;7127;49.372;8.166;2022-07-29T02:29:41;1.10;;;0.97;;
14100;SDS011;7127;49.372;8.166;2022-07-29T02:32:10;1.30;;;1.10;;
14100;SDS011;7127;49.372;8.166;2022-07-29T02:34:40;2.50;;;1.40;;
14100;SDS011;7127;49.372;8.166;2022-07-29T02:37:09;1.20;;;1.10;;
14100;SDS011;7127;49.372;8.166;2022-07-29T02:39:39;1.30;;;1.00;;
14100;SDS011;7127;49.372;8.166;2022-07-29T02:42:10;1.10;;;1.00;;
14100;SDS011;7127;49.372;8.166;2022-07-29T02:44:39;1.33;;;1.20;;
14100;SDS011;7127;49.372;8.166;2022-07-29T02:47:07;2.80;;;0.93;;
14100;SDS011;7127;49.372;8.166;2022-07-29T02:49:41;2.47;;;1.07;;
14100;SDS011;7127;49.372;8.166;2022-07-29T02:52:21;1.93;;;1.10;;
14100;SDS011;7127;49.372;8.166;2022-07-29T02:54:53;0.97;;;0.87;;
14100;SDS011;7127;49.372;8.166;2022-07-29T02:57:25;1.00;;;0.80;;
14100;SDS011;7127;49.372;8.166;2022-07-29T02:59:59;1.80;;;0.90;;
14100;SDS011;7127;49.372;8.166;2022-07-29T03:02:34;1.07;;;0.90;;
14100;SDS011;7127;49.372;8.166;2022-07-29T03:05:04;1.10;;;0.93;;
14100;SDS011;7127;49.372;8.166;2022-07-29T03:07:34;0.70;;;0.70;;
14100;SDS011;7127;49.372;8.166;2022-07-29T03:10:02;0.57;;;0.57;;
14100;SDS011;7127;49.372;8.166;2022-07-29T03:12:31;1.93;;;0.87;;
14100;SDS011;7127;49.372;8.166;2022-07-29T03:14:58;1.67;;;0.90;;
14100;SDS011;7127;49.372;8.166;2022-07-29T03:17:27;1.77;;;0.93;;
14100;SDS011;7127;49.372;8.166;2022-07-29T03:19:55;1.23;;;1.00;;
14100;SDS011;7127;49.372;8.166;2022-07-29T03:22:22;1.13;;;1.00;;
14100;SDS011;7127;49.372;8.166;2022-07-29T03:24:50;1.20;;;1.10;;
14100;SDS011;7127;49.372;8.166;2022-07-29T03:27:17;2.00;;;0.90;;
14100;SDS011;7127;49.372;8.166;2022-07-29T03:29:44;1.03;;;0.93;;
14100;SDS011;7127;49.372;8.166;2022-07-29T03:32:11;1.47;;;1.10;;
14100;SDS011;7127;49.372;8.166;2022-07-29T03:34:38;2.50;;;1.20;;
14100;SDS011;7127;49.372;8.166;2022-07-29T03:37:07;1.03;;;0.97;;
14100;SDS011;7127;49.372;8.166;2022-07-29T03:39:35;1.00;;;0.90;;
14100;SDS011;7127;49.372;8.166;2022-07-29T03:42:06;1.83;;;0.90;;
14100;SDS011;7127;49.372;8.166;2022-07-29T03:44:37;1.50;;;1.00;;
14100;SDS011;7127;49.372;8.166;2022-07-29T03:47:06;1.20;;;1.10;;
14100;SDS011;7127;49.372;8.166;2022-07-29T03:49:36;2.23;;;1.10;;
14100;SDS011;7127;49.372;8.166;2022-07-29T03:52:04;1.77;;;1.10;;
14100;SDS011;7127;49.372;8.166;2022-07-29T03:54:33;2.73;;;1.03;;
14100;SDS011;7127;49.372;8.166;2022-07-29T03:57:01;1.87;;;1.10;;
14100;SDS011;7127;49.372;8.166;2022-07-29T03:59:28;1.17;;;1.00;;
14100;SDS011;7127;49.372;8.166;2022-07-29T04:01:58;1.50;;;1.17;;
14100;SDS011;7127;49.372;8.166;2022-07-29T04:04:26;1.00;;;0.90;;
14100;SDS011;7127;49.372;8.166;2022-07-29T04:06:53;0.90;;;0.90;;
14100;SDS011;7127;49.372;8.166;2022-07-29T04:09:20;1.63;;;1.00;;
14100;SDS011;7127;49.372;8.166;2022-07-29T04:11:49;1.10;;;1.00;;
14100;SDS011;7127;49.372;8.166;2022-07-29T04:14:16;1.10;;;1.00;;
14100;SDS011;7127;49.372;8.166;2022-07-29T04:16:43;2.37;;;0.90;;
14100;SDS011;7127;49.372;8.166;2022-07-29T04:19:10;1.40;;;1.17;;
14100;SDS011;7127;49.372;8.166;2022-07-29T04:21:37;2.40;;;1.00;;
14100;SDS011;7127;49.372;8.166;2022-07-29T04:24:05;1.07;;;1.00;;
14100;SDS011;7127;49.372;8.166;2022-07-29T04:26:33;1.03;;;0.93;;
14100;SDS011;7127;49.372;8.166;2022-07-29T04:29:02;1.30;;;1.00;;
14100;SDS011;7127;49.372;8.166;2022-07-29T04:31:29;1.37;;;1.10;;
14100;SDS011;7127;49.372;8.166;2022-07-29T04:33:56;1.63;;;1.10;;
14100;SDS011;7127;49.372;8.166;2022-07-29T04:36:23;2.73;;;1.50;;
14100;SDS011;7127;49.372;8.166;2022-07-29T04:38:50;2.17;;;1.23;;
14100;SDS011;7127;49.372;8.166;2022-07-29T04:41:17;1.47;;;1.17;;
14100;SDS011;7127;49.372;8.166;2022-07-29T04:43:44;1.40;;;1.30;;
14100;SDS011;7127;49.372;8.166;2022-07-29T04:46:12;2.70;;;1.30;;
14100;SDS011;7127;49.372;8.166;2022-07-29T04:48:39;1.43;;;0.97;;
14100;SDS011;7127;49.372;8.166;2022-07-29T04:51:06;0.87;;;0.87;;
14100;SDS011;7127;49.372;8.166;2022-07-29T04:53:33;1.03;;;0.90;;
14100;SDS011;7127;49.372;8.166;2022-07-29T04:56:00;1.60;;;1.00;;
14100;SDS011;7127;49.372;8.166;2022-07-29T04:58:28;1.50;;;1.00;;
14100;SDS011;7127;49.372;8.166;2022-07-29T05:00:55;1.70;;;1.20;;
14100;SDS011;7127;49.372;8.166;2022-07-29T05:03:24;1.30;;;1.10;;
14100;SDS011;7127;49.372;8.166;2022-07-29T05:05:50;1.17;;;1.07;;
14100;SDS011;7127;49.372;8.166;2022-07-29T05:08:17;1.40;;;1.20;;
14100;SDS011;7127;49.372;8.166;2022-07-29T05:10:44;0.97;;;0.97;;
14100;SDS011;7127;49.372;8.166;2022-07-29T05:13:11;2.30;;;1.40;;
14100;SDS011;7127;49.372;8.166;2022-07-29T05:15:38;1.90;;;1.00;;
14100;SDS011;7127;49.372;8.166;2022-07-29T05:18:05;1.33;;;1.23;;
14100;SDS011;7127;49.372;8.166;2022-07-29T05:20:34;2.10;;;1.33;;
14100;SDS011;7127;49.372;8.166;2022-07-29T05:23:01;2.10;;;1.33;;
14100;SDS011;7127;49.372;8.166;2022-07-29T05:25:29;1.30;;;1.13;;
14100;SDS011;7127;49.372;8.166;2022-07-29T05:27:56;1.13;;;1.03;;
14100;SDS011;7127;49.372;8.166;2022-07-29T05:30:23;1.10;;;1.00;;
14100;SDS011;7127;49.372;8.166;2022-07-29T05:32:50;2.03;;;1.30;;
14100;SDS011;7127;49.372;8.166;2022-07-29T05:35:17;1.80;;;1.10;;
14100;SDS011;7127;49.372;8.166;2022-07-29T05:37:46;1.10;;;1.00;;
14100;SDS011;7127;49.372;8.166;2022-07-29T05:40:13;2.60;;;1.33;;
14100;SDS011;7127;49.372;8.166;2022-07-29T05:42:40;1.50;;;1.10;;
14100;SDS011;7127;49.372;8.166;2022-07-29T05:45:07;1.23;;;1.13;;
14100;SDS011;7127;49.372;8.166;2022-07-29T05:47:34;1.37;;;1.20;;
14100;SDS011;7127;49.372;8.166;2022-07-29T05:50:02;1.53;;;1.27;;
14100;SDS011;7127;49.372;8.166;2022-07-29T05:52:29;2.00;;;1.37;;
14100;SDS011;7127;49.372;8.166;2022-07-29T05:54:57;1.50;;;1.23;;
14100;SDS011;7127;49.372;8.166;2022-07-29T05:57:27;1.10;;;1.00;;
14100;SDS011;7127;49.372;8.166;2022-07-29T05:59:54;2.00;;;1.10;;
14100;SDS011;7127;49.372;8.166;2022-07-29T06:02:21;1.10;;;1.00;;
14100;SDS011;7127;49.372;8.166;2022-07-29T06:04:48;2.60;;;1.00;;
14100;SDS011;7127;49.372;8.166;2022-07-29T06:07:15;1.40;;;0.90;;
14100;SDS011;7127;49.372;8.166;2022-07-29T06:09:42;1.50;;;1.00;;
14100;SDS011;7127;49.372;8.166;2022-07-29T06:12:11;0.90;;;0.90;;
14100;SDS011;7127;49.372;8.166;2022-07-29T06:14:39;1.50;;;0.93;;
14100;SDS011;7127;49.372;8.166;2022-07-29T06:17:06;1.17;;;1.00;;
14100;SDS011;7127;49.372;8.166;2022-07-29T06:19:34;1.10;;;1.00;;
14100;SDS011;7127;49.372;8.166;2022-07-29T06:22:01;1.60;;;1.07;;
14100;SDS011;7127;49.372;8.166;2022-07-29T06:24:28;1.27;;;0.97;;
14100;SDS011;7127;49.372;8.166;2022-07-29T06:26:55;4.47;;;1.13;;
14100;SDS011;7127;49.372;8.166;2022-07-29T06:29:24;2.53;;;1.13;;
14100;SDS011;7127;49.372;8.166;2022-07-29T06:31:51;1.13;;;1.03;;
14100;SDS011;7127;49.372;8.166;2022-07-29T06:34:18;1.23;;;1.10;;
14100;SDS011;7127;49.372;8.166;2022-07-29T06:36:45;1.60;;;1.13;;
14100;SDS011;7127;49.372;8.166;2022-07-29T06:39:12;1.60;;;1.10;;
14100;SDS011;7127;49.372;8.166;2022-07-29T06:41:39;1.20;;;1.10;;
14100;SDS011;7127;49.372;8.166;2022-07-29T06:44:06;1.40;;;1.30;;
14100;SDS011;7127;49.372;8.166;2022-07-29T06:46:34;1.47;;;1.30;;
14100;SDS011;7127;49.372;8.166;2022-07-29T06:49:01;1.30;;;1.20;;
14100;SDS011;7127;49.372;8.166;2022-07-29T06:51:29;1.50;;;1.23;;
14100;SDS011;7127;49.372;8.166;2022-07-29T06:53:56;1.37;;;1.17;;
14100;SDS011;7127;49.372;8.166;2022-07-29T06:56:23;2.90;;;1.40;;
14100;SDS011;7127;49.372;8.166;2022-07-29T06:58:50;2.03;;;1.33;;
14100;SDS011;7127;49.372;8.166;2022-07-29T07:01:17;2.50;;;1.27;;
14100;SDS011;7127;49.372;8.166;2022-07-29T07:03:46;1.70;;;1.40;;
14100;SDS011;7127;49.372;8.166;2022-07-29T07:06:13;2.08;;;1.15;;
14100;SDS011;7127;49.372;8.166;2022-07-29T07:08:40;1.52;;;1.20;;
14100;SDS011;7127;49.372;8.166;2022-07-29T07:11:08;1.55;;;1.17;;
14100;SDS011;7127;49.372;8.166;2022-07-29T07:13:35;2.38;;;1.17;;
14100;SDS011;7127;49.372;8.166;2022-07-29T07:16:02;1.42;;;1.20;;
14100;SDS011;7127;49.372;8.166;2022-07-29T07:18:30;1.38;;;1.20;;
14100;SDS011;7127;49.372;8.166;2022-07-29T07:20:59;1.30;;;1.20;;
14100;SDS011;7127;49.372;8.166;2022-07-29T07:23:26;1.30;;;1.20;;
14100;SDS011;7127;49.372;8.166;2022-07-29T07:25:53;1.23;;;1.13;;
14100;SDS011;7127;49.372;8.166;2022-07-29T07:28:20;1.98;;;1.40;;
14100;SDS011;7127;49.372;8.166;2022-07-29T07:30:47;1.73;;;1.30;;
14100;SDS011;7127;49.372;8.166;2022-07-29T07:33:14;1.83;;;1.23;;
14100;SDS011;7127;49.372;8.166;2022-07-29T07:35:41;2.28;;;1.40;;
14100;SDS011;7127;49.372;8.166;2022-07-29T07:38:10;3.72;;;1.48;;
14100;SDS011;7127;49.372;8.166;2022-07-29T07:40:38;1.67;;;1.20;;
14100;SDS011;7127;49.372;8.166;2022-07-29T07:43:05;1.70;;;1.40;;
14100;SDS011;7127;49.372;8.166;2022-07-29T07:45:32;1.35;;;1.20;;
14100;SDS011;7127;49.372;8.166;2022-07-29T07:47:59;2.15;;;1.30;;
14100;SDS011;7127;49.372;8.166;2022-07-29T07:50:26;2.65;;;1.20;;
14100;SDS011;7127;49.372;8.166;2022-07-29T07:52:54;1.00;;;1.00;;
14100;SDS011;7127;49.372;8.166;2022-07-29T07:55:24;3.00;;;1.15;;
14100;SDS011;7127;49.372;8.166;2022-07-29T07:57:51;1.33;;;1.23;;
14100;SDS011;7127;49.372;8.166;2022-07-29T08:00:19;2.35;;;1.20;;
14100;SDS011;7127;49.372;8.166;2022-07-29T08:02:46;1.70;;;1.40;;
14100;SDS011;7127;49.372;8.166;2022-07-29T08:05:14;2.05;;;1.38;;
14100;SDS011;7127;49.372;8.166;2022-07-29T08:07:43;1.27;;;1.10;;
14100;SDS011;7127;49.372;8.166;2022-07-29T08:10:12;1.30;;;1.08;;
14100;SDS011;7127;49.372;8.166;2022-07-29T08:12:40;1.45;;;1.30;;
14100;SDS011;7127;49.372;8.166;2022-07-29T08:15:08;1.95;;;1.20;;
14100;SDS011;7127;49.372;8.166;2022-07-29T08:17:35;1.52;;;1.30;;
14100;SDS011;7127;49.372;8.166;2022-07-29T08:20:03;2.08;;;1.30;;
14100;SDS011;7127;49.372;8.166;2022-07-29T08:22:30;2.10;;;1.40;;
14100;SDS011;7127;49.372;8.166;2022-07-29T08:24:58;2.00;;;1.45;;
14100;SDS011;7127;49.372;8.166;2022-07-29T08:27:25;1.77;;;1.67;;
14100;SDS011;7127;49.372;8.166;2022-07-29T08:29:56;1.70;;;1.20;;
14100;SDS011;7127;49.372;8.166;2022-07-29T08:32:23;2.05;;;1.35;;
14100;SDS011;7127;49.372;8.166;2022-07-29T08:34:50;2.38;;;1.42;;
14100;SDS011;7127;49.372;8.166;2022-07-29T08:37:17;2.88;;;1.38;;
14100;SDS011;7127;49.372;8.166;2022-07-29T08:39:44;1.55;;;1.45;;
14100;SDS011;7127;49.372;8.166;2022-07-29T08:42:11;1.65;;;1.27;;
14100;SDS011;7127;49.372;8.166;2022-07-29T08:44:38;1.25;;;1.15;;
14100;SDS011;7127;49.372;8.166;2022-07-29T08:47:07;1.13;;;1.02;;
14100;SDS011;7127;49.372;8.166;2022-07-29T08:49:34;1.30;;;1.20;;
14100;SDS011;7127;49.372;8.166;2022-07-29T08:52:01;2.38;;;1.45;;
14100;SDS011;7127;49.372;8.166;2022-07-29T08:54:29;2.20;;;1.50;;
14100;SDS011;7127;49.372;8.166;2022-07-29T08:56:57;1.38;;;1.25;;
14100;SDS011;7127;49.372;8.166;2022-07-29T08:59:26;2.25;;;1.30;;
14100;SDS011;7127;49.372;8.166;2022-07-29T09:01:54;2.05;;;1.30;;
14100;SDS011;7127;49.372;8.166;2022-07-29T09:04:25;1.25;;;1.13;;
14100;SDS011;7127;49.372;8.166;2022-07-29T09:06:56;2.75;;;1.33;;
14100;SDS011;7127;49.372;8.166;2022-07-29T09:09:26;1.60;;;1.50;;
14100;SDS011;7127;49.372;8.166;2022-07-29T09:11:53;1.30;;;1.20;;
14100;SDS011;7127;49.372;8.166;2022-07-29T09:14:22;3.42;;;1.58;;
14100;SDS011;7127;49.372;8.166;2022-07-29T09:16:50;1.30;;;1.20;;
14100;SDS011;7127;49.372;8.166;2022-07-29T09:19:22;2.13;;;1.30;;
14100;SDS011;7127;49.372;8.166;2022-07-29T09:21:56;1.30;;;1.13;;
14100;SDS011;7127;49.372;8.166;2022-07-29T09:24:25;3.08;;;1.42;;
14100;SDS011;7127;49.372;8.166;2022-07-29T09:26:53;1.30;;;1.20;;
14100;SDS011;7127;49.372;8.166;2022-07-29T09:29:20;1.15;;;1.10;;
14100;SDS011;7127;49.372;8.166;2022-07-29T09:31:49;1.88;;;1.50;;
14100;SDS011;7127;49.372;8.166;2022-07-29T09:34:21;1.50;;;1.40;;
14100;SDS011;7127;49.372;8.166;2022-07-29T09:36:50;1.20;;;1.10;;
14100;SDS011;7127;49.372;8.166;2022-07-29T09:39:28;2.13;;;1.40;;
14100;SDS011;7127;49.372;8.166;2022-07-29T09:41:57;1.30;;;1.10;;
14100;SDS011;7127;49.372;8.166;2022-07-29T09:44:26;1.25;;;1.15;;
14100;SDS011;7127;49.372;8.166;2022-07-29T09:47:06;2.60;;;1.35;;
14100;SDS011;7127;49.372;8.166;2022-07-29T09:49:33;1.65;;;1.23;;
14100;SDS011;7127;49.372;8.166;2022-07-29T09:52:09;1.42;;;1.23;;
14100;SDS011;7127;49.372;8.166;2022-07-29T09:54:37;2.45;;;1.50;;
14100;SDS011;7127;49.372;8.166;2022-07-29T09:57:04;2.97;;;1.45;;
14100;SDS011;7127;49.372;8.166;2022-07-29T09:59:32;1.88;;;1.50;;
14100;SDS011;7127;49.372;8.166;2022-07-29T10:01:59;1.95;;;1.70;;
14100;SDS011;7127;49.372;8.166;2022-07-29T10:04:36;2.47;;;1.52;;
14100;SDS011;7127;49.372;8.166;2022-07-29T10:07:05;2.67;;;1.92;;
14100;SDS011;7127;49.372;8.166;2022-07-29T10:09:33;3.55;;;1.98;;
14100;SDS011;7127;49.372;8.166;2022-07-29T10:12:08;1.85;;;1.48;;
14100;SDS011;7127;49.372;8.166;2022-07-29T10:14:38;1.90;;;1.40;;
14100;SDS011;7127;49.372;8.166;2022-07-29T10:17:07;2.97;;;1.70;;
14100;SDS011;7127;49.372;8.166;2022-07-29T10:19:36;5.53;;;2.72;;
14100;SDS011;7127;49.372;8.166;2022-07-29T10:22:06;4.15;;;2.28;;
14100;SDS011;7127;49.372;8.166;2022-07-29T10:24:36;6.10;;;2.65;;
14100;SDS011;7127;49.372;8.166;2022-07-29T10:27:05;3.42;;;2.00;;
14100;SDS011;7127;49.372;8.166;2022-07-29T10:29:33;3.92;;;2.17;;
14100;SDS011;7127;49.372;8.166;2022-07-29T10:32:13;2.85;;;1.67;;
14100;SDS011;7127;49.372;8.166;2022-07-29T10:35:11;3.47;;;2.20;;
14100;SDS011;7127;49.372;8.166;2022-07-29T10:37:47;2.63;;;1.80;;
14100;SDS011;7127;49.372;8.166;2022-07-29T10:40:32;2.22;;;1.45;;
14100;SDS011;7127;49.372;8.166;2022-07-29T10:43:26;1.58;;;1.35;;
14100;SDS011;7127;49.372;8.166;2022-07-29T10:45:56;1.95;;;1.40;;
14100;SDS011;7127;49.372;8.166;2022-07-29T10:48:25;1.95;;;1.67;;
14100;SDS011;7127;49.372;8.166;2022-07-29T10:50:53;2.13;;;1.60;;
14100;SDS011;7127;49.372;8.166;2022-07-29T10:53:23;1.80;;;1.40;;
14100;SDS011;7127;49.372;8.166;2022-07-29T10:56:23;2.33;;;1.75;;
14100;SDS011;7127;49.372;8.166;2022-07-29T11:01:51;4.88;;;1.67;;
14100;SDS011;7127;49.372;8.166;2022-07-29T11:07:19;1.77;;;1.50;;
14100;SDS011;7127;49.372;8.166;2022-07-29T11:10:07;1.40;;;1.30;;
14100;SDS011;7127;49.372;8.166;2022-07-29T11:12:47;2.63;;;1.30;;
14100;SDS011;7127;49.372;8.166;2022-07-29T11:15:16;1.65;;;1.42;;
14100;SDS011;7127;49.372;8.166;2022-07-29T11:20:35;2.80;;;1.55;;
14100;SDS011;7127;49.372;8.166;2022-07-29T11:23:23;1.48;;;1.27;;
14100;SDS011;7127;49.372;8.166;2022-07-29T11:28:56;2.13;;;1.60;;
14100;SDS011;7127;49.372;8.166;2022-07-29T11:31:34;1.50;;;1.40;;
14100;SDS011;7127;49.372;8.166;2022-07-29T11:34:19;2.03;;;1.50;;
14100;SDS011;7127;49.372;8.166;2022-07-29T11:40:09;1.63;;;1.52;;
14100;SDS011;7127;49.372;8.166;2022-07-29T11:42:42;1.55;;;1.45;;
14100;SDS011;7127;49.372;8.166;2022-07-29T11:45:13;1.95;;;1.30;;
14100;SDS011;7127;49.372;8.166;2022-07-29T11:47:49;2.08;;;1.60;;
14100;SDS011;7127;49.372;8.166;2022-07-29T11:50:18;1.95;;;1.48;;
14100;SDS011;7127;49.372;8.166;2022-07-29T11:52:57;1.77;;;1.48;;
14100;SDS011;7127;49.372;8.166;2022-07-29T11:55:24;1.77;;;1.33;;
14100;SDS011;7127;49.372;8.166;2022-07-29T11:57:52;1.85;;;1.40;;
14100;SDS011;7127;49.372;8.166;2022-07-29T12:00:23;2.40;;;1.65;;
14100;SDS011;7127;49.372;8.166;2022-07-29T12:02:52;1.63;;;1.52;;
14100;SDS011;7127;49.372;8.166;2022-07-29T12:05:20;1.90;;;1.70;;
14100;SDS011;7127;49.372;8.166;2022-07-29T12:07:47;1.77;;;1.50;;
14100;SDS011;7127;49.372;8.166;2022-07-29T12:10:15;2.17;;;1.50;;
14100;SDS011;7127;49.372;8.166;2022-07-29T12:12:42;1.60;;;1.30;;
14100;SDS011;7127;49.372;8.166;2022-07-29T12:15:17;1.73;;;1.63;;
14100;SDS011;7127;49.372;8.166;2022-07-29T12:17:47;2.95;;;1.50;;
14100;SDS011;7127;49.372;8.166;2022-07-29T12:20:21;1.38;;;1.27;;
14100;SDS011;7127;49.372;8.166;2022-07-29T12:22:50;2.60;;;1.50;;
14100;SDS011;7127;49.372;8.166;2022-07-29T12:25:19;2.50;;;1.40;;
14100;SDS011;7127;49.372;8.166;2022-07-29T12:27:47;1.25;;;1.15;;
14100;SDS011;7127;49.372;8.166;2022-07-29T12:30:33;1.52;;;1.25;;
14100;SDS011;7127;49.372;8.166;2022-07-29T12:33:09;2.60;;;1.30;;
14100;SDS011;7127;49.372;8.166;2022-07-29T12:35:37;1.92;;;1.60;;
14100;SDS011;7127;49.372;8.166;2022-07-29T12:38:05;1.20;;;1.10;;
14100;SDS011;7127;49.372;8.166;2022-07-29T12:40:32;1.83;;;1.40;;
14100;SDS011;7127;49.372;8.166;2022-07-29T12:43:10;2.65;;;1.40;;
14100;SDS011;7127;49.372;8.166;2022-07-29T12:45:39;1.48;;;1.38;;
14100;SDS011;7127;49.372;8.166;2022-07-29T12:48:09;1.40;;;1.30;;
14100;SDS011;7127;49.372;8.166;2022-07-29T12:50:36;1.77;;;1.23;;
14100;SDS011;7127;49.372;8.166;2022-07-29T12:53:17;1.50;;;1.30;;
14100;SDS011;7127;49.372;8.166;2022-07-29T12:55:45;1.30;;;1.20;;
14100;SDS011;7127;49.372;8.166;2022-07-29T12:58:25;1.30;;;1.20;;
14100;SDS011;7127;49.372;8.166;2022-07-29T13:01:00;1.52;;;1.30;;
14100;SDS011;7127;49.372;8.166;2022-07-29T13:03:30;1.20;;;1.10;;
14100;SDS011;7127;49.372;8.166;2022-07-29T13:09:09;1.15;;;1.10;;
14100;SDS011;7127;49.372;8.166;2022-07-29T13:11:39;1.20;;;1.10;;
14100;SDS011;7127;49.372;8.166;2022-07-29T13:14:07;1.27;;;1.17;;
14100;SDS011;7127;49.372;8.166;2022-07-29T13:16:35;1.38;;;1.15;;
14100;SDS011;7127;49.372;8.166;2022-07-29T13:19:08;1.30;;;1.05;;
14100;SDS011;7127;49.372;8.166;2022-07-29T13:21:37;1.40;;;1.20;;
14100;SDS011;7127;49.372;8.166;2022-07-29T13:24:06;0.82;;;0.82;;
14100;SDS011;7127;49.372;8.166;2022-07-29T13:26:33;2.50;;;1.25;;
14100;SDS011;7127;49.372;8.166;2022-07-29T13:29:01;1.45;;;1.20;;
14100;SDS011;7127;49.372;8.166;2022-07-29T13:31:28;1.08;;;0.93;;
14100;SDS011;7127;49.372;8.166;2022-07-29T13:33:56;1.27;;;1.17;;
14100;SDS011;7127;49.372;8.166;2022-07-29T13:36:25;1.30;;;1.02;;
14100;SDS011;7127;49.372;8.166;2022-07-29T13:38:52;1.27;;;1.15;;
14100;SDS011;7127;49.372;8.166;2022-07-29T13:41:18;1.35;;;0.90;;
14100;SDS011;7127;49.372;8.166;2022-07-29T13:43:46;2.33;;;1.20;;
14100;SDS011;7127;49.372;8.166;2022-07-29T13:46:12;1.20;;;1.10;;
14100;SDS011;7127;49.372;8.166;2022-07-29T13:48:39;2.53;;;1.10;;
14100;SDS011;7127;49.372;8.166;2022-07-29T13:51:07;0.90;;;0.90;;
14100;SDS011;7127;49.372;8.166;2022-07-29T13:53:35;1.52;;;1.10;;
14100;SDS011;7127;49.372;8.166;2022-07-29T13:56:02;1.35;;;0.88;;
14100;SDS011;7127;49.372;8.166;2022-07-29T13:58:30;2.58;;;1.10;;
14100;SDS011;7127;49.372;8.166;2022-07-29T14:00:58;1.10;;;1.00;;
14100;SDS011;7127;49.372;8.166;2022-07-29T14:03:25;1.73;;;1.10;;
14100;SDS011;7127;49.372;8.166;2022-07-29T14:05:52;1.17;;;0.95;;
14100;SDS011;7127;49.372;8.166;2022-07-29T14:08:19;2.17;;;0.90;;
14100;SDS011;7127;49.372;8.166;2022-07-29T14:10:48;0.80;;;0.80;;
14100;SDS011;7127;49.372;8.166;2022-07-29T14:13:15;0.80;;;0.80;;
14100;SDS011;7127;49.372;8.166;2022-07-29T14:15:42;0.95;;;0.88;;
14100;SDS011;7127;49.372;8.166;2022-07-29T14:18:08;1.08;;;0.95;;
14100;SDS011;7127;49.372;8.166;2022-07-29T14:20:36;1.50;;;1.00;;
14100;SDS011;7127;49.372;8.166;2022-07-29T14:23:03;0.80;;;0.80;;
14100;SDS011;7127;49.372;8.166;2022-07-29T14:25:29;0.95;;;0.73;;
14100;SDS011;7127;49.372;8.166;2022-07-29T14:27:58;1.33;;;0.80;;
14100;SDS011;7127;49.372;8.166;2022-07-29T14:30:25;1.50;;;0.85;;
14100;SDS011;7127;49.372;8.166;2022-07-29T14:32:52;2.30;;;1.10;;
14100;SDS011;7127;49.372;8.166;2022-07-29T14:35:19;1.05;;;0.95;;
14100;SDS011;7127;49.372;8.166;2022-07-29T14:37:46;1.10;;;0.80;;
14100;SDS011;7127;49.372;8.166;2022-07-29T14:40:13;0.82;;;0.82;;
14100;SDS011;7127;49.372;8.166;2022-07-29T14:42:40;0.75;;;0.65;;
14100;SDS011;7127;49.372;8.166;2022-07-29T14:45:09;2.05;;;0.70;;
14100;SDS011;7127;49.372;8.166;2022-07-29T14:47:36;0.70;;;0.70;;
14100;SDS011;7127;49.372;8.166;2022-07-29T14:50:04;0.77;;;0.60;;
14100;SDS011;7127;49.372;8.166;2022-07-29T14:52:32;1.65;;;0.90;;
14100;SDS011;7127;49.372;8.166;2022-07-29T14:54:59;0.85;;;0.70;;
14100;SDS011;7127;49.372;8.166;2022-07-29T14:57:26;1.83;;;0.88;;
14100;SDS011;7127;49.372;8.166;2022-07-29T14:59:53;1.05;;;0.90;;
14100;SDS011;7127;49.372;8.166;2022-07-29T15:02:22;0.88;;;0.80;;
14100;SDS011;7127;49.372;8.166;2022-07-29T15:04:49;1.33;;;0.80;;
14100;SDS011;7127;49.372;8.166;2022-07-29T15:07:16;1.08;;;0.77;;
14100;SDS011;7127;49.372;8.166;2022-07-29T15:09:43;1.02;;;0.82;;
14100;SDS011;7127;49.372;8.166;2022-07-29T15:12:10;2.25;;;0.73;;
14100;SDS011;7127;49.372;8.166;2022-07-29T15:14:37;0.80;;;0.80;;
14100;SDS011;7127;49.372;8.166;2022-07-29T15:17:04;1.60;;;0.90;;
14100;SDS011;7127;49.372;8.166;2022-07-29T15:19:33;2.75;;;1.10;;
14100;SDS011;7127;49.372;8.166;2022-07-29T15:22:00;0.77;;;0.77;;
14100;SDS011;7127;49.372;8.166;2022-07-29T15:24:27;2.15;;;0.80;;
14100;SDS011;7127;49.372;8.166;2022-07-29T15:26:54;0.95;;;0.77;;
14100;SDS011;7127;49.372;8.166;2022-07-29T15:29:21;0.88;;;0.73;;
14100;SDS011;7127;49.372;8.166;2022-07-29T15:31:48;1.02;;;0.63;;